sensor_id;sensor_type;location;lat;lon;timestamp;P1;durP1;ratioP1;P2;durP2;ratioP2
27985;SDS011;15453;53.692;10.168;2022-10-26T00:00:07;8.73;;;5.20;;
27985;SDS011;15453;53.692;10.168;2022-10-26T00:02:33;9.48;;;5.50;;
27985;SDS011;15453;53.692;10.168;2022-10-26T00:04:59;8.75;;;5.45;;
27985;SDS011;15453;53.692;10.168;2022-10-26T00:07:24;7.95;;;5.45;;
27985;SDS011;15453;53.692;10.168;2022-10-26T00:09:49;8.30;;;5.00;;
27985;SDS011;15453;53.692;10.168;2022-10-26T00:12:14;8.85;;;5.53;;
27985;SDS011;15453;53.692;10.168;2022-10-26T00:14:40;7.75;;;5.32;;
27985;SDS011;15453;53.692;10.168;2022-10-26T00:17:05;10.52;;;5.55;;
27985;SDS011;15453;53.692;10.168;2022-10-26T00:19:33;9.02;;;5.22;;
27985;SDS011;15453;53.692;10.168;2022-10-26T00:21:59;6.40;;;4.43;;
27985;SDS011;15453;53.692;10.168;2022-10-26T00:24:24;7.55;;;5.70;;
27985;SDS011;15453;53.692;10.168;2022-10-26T00:26:49;13.32;;;5.75;;
27985;SDS011;15453;53.692;10.168;2022-10-26T00:29:14;8.65;;;5.40;;
27985;SDS011;15453;53.692;10.168;2022-10-26T00:31:42;13.20;;;5.10;;
27985;SDS011;15453;53.692;10.168;2022-10-26T00:34:08;6.68;;;5.13;;
27985;SDS011;15453;53.692;10.168;2022-10-26T00:36:34;9.18;;;5.72;;
27985;SDS011;15453;53.692;10.168;2022-10-26T00:39:00;9.13;;;5.10;;
27985;SDS011;15453;53.692;10.168;2022-10-26T00:41:27;8.05;;;5.10;;
27985;SDS011;15453;53.692;10.168;2022-10-26T00:43:54;7.85;;;5.10;;
27985;SDS011;15453;53.692;10.168;2022-10-26T00:46:24;8.77;;;5.40;;
27985;SDS011;15453;53.692;10.168;2022-10-26T00:48:56;6.60;;;5.13;;
27985;SDS011;15453;53.692;10.168;2022-10-26T00:51:26;8.52;;;5.13;;
27985;SDS011;15453;53.692;10.168;2022-10-26T00:53:56;5.55;;;4.63;;
27985;SDS011;15453;53.692;10.168;2022-10-26T00:56:24;7.22;;;5.10;;
27985;SDS011;15453;53.692;10.168;2022-10-26T00:58:49;10.07;;;5.70;;
27985;SDS011;15453;53.692;10.168;2022-10-26T01:01:15;7.28;;;4.90;;
27985;SDS011;15453;53.692;10.168;2022-10-26T01:03:41;13.05;;;5.35;;
27985;SDS011;15453;53.692;10.168;2022-10-26T01:06:06;8.10;;;5.60;;
27985;SDS011;15453;53.692;10.168;2022-10-26T01:08:32;7.82;;;5.85;;
27985;SDS011;15453;53.692;10.168;2022-10-26T01:10:58;8.10;;;5.25;;
27985;SDS011;15453;53.692;10.168;2022-10-26T01:13:25;9.70;;;5.80;;
27985;SDS011;15453;53.692;10.168;2022-10-26T01:19:06;9.50;;;5.30;;
27985;SDS011;15453;53.692;10.168;2022-10-26T01:22:03;10.18;;;4.95;;
27985;SDS011;15453;53.692;10.168;2022-10-26T01:24:37;8.95;;;4.90;;
27985;SDS011;15453;53.692;10.168;2022-10-26T01:32:45;21.77;;;5.63;;
27985;SDS011;15453;53.692;10.168;2022-10-26T01:38:31;6.53;;;5.05;;
27985;SDS011;15453;53.692;10.168;2022-10-26T01:41:18;5.90;;;4.38;;
27985;SDS011;15453;53.692;10.168;2022-10-26T01:43:53;6.35;;;4.40;;
27985;SDS011;15453;53.692;10.168;2022-10-26T01:49:05;7.28;;;4.38;;
27985;SDS011;15453;53.692;10.168;2022-10-26T01:51:37;4.80;;;4.07;;
27985;SDS011;15453;53.692;10.168;2022-10-26T01:54:04;10.48;;;5.07;;
27985;SDS011;15453;53.692;10.168;2022-10-26T01:56:30;5.53;;;4.50;;
27985;SDS011;15453;53.692;10.168;2022-10-26T01:59:11;5.85;;;4.70;;
27985;SDS011;15453;53.692;10.168;2022-10-26T02:04:22;6.78;;;5.15;;
27985;SDS011;15453;53.692;10.168;2022-10-26T02:09:43;7.32;;;5.15;;
27985;SDS011;15453;53.692;10.168;2022-10-26T02:15:07;7.13;;;3.92;;
27985;SDS011;15453;53.692;10.168;2022-10-26T02:17:37;6.40;;;4.30;;
27985;SDS011;15453;53.692;10.168;2022-10-26T02:20:11;7.05;;;4.80;;
27985;SDS011;15453;53.692;10.168;2022-10-26T02:22:42;6.63;;;4.25;;
27985;SDS011;15453;53.692;10.168;2022-10-26T02:25:13;7.57;;;4.85;;
27985;SDS011;15453;53.692;10.168;2022-10-26T02:27:42;7.60;;;4.65;;
27985;SDS011;15453;53.692;10.168;2022-10-26T02:30:11;8.27;;;4.38;;
27985;SDS011;15453;53.692;10.168;2022-10-26T02:32:37;8.85;;;4.40;;
27985;SDS011;15453;53.692;10.168;2022-10-26T02:35:08;5.07;;;3.67;;
27985;SDS011;15453;53.692;10.168;2022-10-26T02:37:37;6.20;;;4.30;;
27985;SDS011;15453;53.692;10.168;2022-10-26T02:40:06;11.20;;;4.53;;
27985;SDS011;15453;53.692;10.168;2022-10-26T02:42:35;8.00;;;4.70;;
27985;SDS011;15453;53.692;10.168;2022-10-26T02:45:05;7.45;;;4.75;;
27985;SDS011;15453;53.692;10.168;2022-10-26T02:47:34;13.43;;;5.55;;
27985;SDS011;15453;53.692;10.168;2022-10-26T02:49:59;6.97;;;4.93;;
27985;SDS011;15453;53.692;10.168;2022-10-26T02:57:38;8.68;;;4.72;;
27985;SDS011;15453;53.692;10.168;2022-10-26T03:00:06;6.10;;;4.35;;
27985;SDS011;15453;53.692;10.168;2022-10-26T03:02:34;8.27;;;4.68;;
27985;SDS011;15453;53.692;10.168;2022-10-26T03:05:06;11.90;;;4.80;;
27985;SDS011;15453;53.692;10.168;2022-10-26T03:07:36;6.20;;;4.30;;
27985;SDS011;15453;53.692;10.168;2022-10-26T03:10:01;6.45;;;5.07;;
27985;SDS011;15453;53.692;10.168;2022-10-26T03:12:26;6.13;;;5.03;;
27985;SDS011;15453;53.692;10.168;2022-10-26T03:14:51;16.27;;;5.80;;
27985;SDS011;15453;53.692;10.168;2022-10-26T03:17:17;7.18;;;4.72;;
27985;SDS011;15453;53.692;10.168;2022-10-26T03:19:42;8.63;;;5.03;;
27985;SDS011;15453;53.692;10.168;2022-10-26T03:22:07;7.25;;;4.75;;
27985;SDS011;15453;53.692;10.168;2022-10-26T03:24:32;11.10;;;5.28;;
27985;SDS011;15453;53.692;10.168;2022-10-26T03:26:58;12.95;;;5.10;;
27985;SDS011;15453;53.692;10.168;2022-10-26T03:29:23;6.95;;;5.20;;
27985;SDS011;15453;53.692;10.168;2022-10-26T03:31:48;10.50;;;5.70;;
27985;SDS011;15453;53.692;10.168;2022-10-26T03:34:18;8.88;;;5.60;;
27985;SDS011;15453;53.692;10.168;2022-10-26T03:36:43;14.20;;;6.00;;
27985;SDS011;15453;53.692;10.168;2022-10-26T03:39:08;7.72;;;5.45;;
27985;SDS011;15453;53.692;10.168;2022-10-26T03:41:34;6.50;;;4.82;;
27985;SDS011;15453;53.692;10.168;2022-10-26T03:43:59;7.65;;;5.40;;
27985;SDS011;15453;53.692;10.168;2022-10-26T03:46:24;8.52;;;5.28;;
27985;SDS011;15453;53.692;10.168;2022-10-26T03:48:49;7.07;;;5.07;;
27985;SDS011;15453;53.692;10.168;2022-10-26T03:51:14;10.57;;;5.68;;
27985;SDS011;15453;53.692;10.168;2022-10-26T03:53:40;8.20;;;5.35;;
27985;SDS011;15453;53.692;10.168;2022-10-26T03:56:05;12.65;;;5.10;;
27985;SDS011;15453;53.692;10.168;2022-10-26T03:58:30;8.98;;;5.07;;
27985;SDS011;15453;53.692;10.168;2022-10-26T04:00:56;9.00;;;5.40;;
27985;SDS011;15453;53.692;10.168;2022-10-26T04:03:21;8.13;;;5.55;;
27985;SDS011;15453;53.692;10.168;2022-10-26T04:05:46;6.85;;;5.20;;
27985;SDS011;15453;53.692;10.168;2022-10-26T04:08:11;7.05;;;4.97;;
27985;SDS011;15453;53.692;10.168;2022-10-26T04:10:37;9.15;;;5.72;;
27985;SDS011;15453;53.692;10.168;2022-10-26T04:13:02;7.82;;;5.85;;
27985;SDS011;15453;53.692;10.168;2022-10-26T04:15:28;8.57;;;5.80;;
27985;SDS011;15453;53.692;10.168;2022-10-26T04:17:56;8.95;;;5.95;;
27985;SDS011;15453;53.692;10.168;2022-10-26T04:20:22;10.95;;;5.82;;
27985;SDS011;15453;53.692;10.168;2022-10-26T04:22:55;9.23;;;5.55;;
27985;SDS011;15453;53.692;10.168;2022-10-26T04:25:24;8.23;;;5.82;;
27985;SDS011;15453;53.692;10.168;2022-10-26T04:27:49;10.80;;;6.40;;
27985;SDS011;15453;53.692;10.168;2022-10-26T04:30:14;9.02;;;5.70;;
27985;SDS011;15453;53.692;10.168;2022-10-26T04:32:40;9.88;;;6.15;;
27985;SDS011;15453;53.692;10.168;2022-10-26T04:35:05;10.68;;;6.13;;
27985;SDS011;15453;53.692;10.168;2022-10-26T04:37:30;8.30;;;6.15;;
27985;SDS011;15453;53.692;10.168;2022-10-26T04:39:57;10.35;;;6.75;;
27985;SDS011;15453;53.692;10.168;2022-10-26T04:42:22;8.75;;;6.30;;
27985;SDS011;15453;53.692;10.168;2022-10-26T04:44:47;8.90;;;6.32;;
27985;SDS011;15453;53.692;10.168;2022-10-26T04:47:12;10.27;;;6.53;;
27985;SDS011;15453;53.692;10.168;2022-10-26T04:49:37;8.57;;;6.47;;
27985;SDS011;15453;53.692;10.168;2022-10-26T04:52:04;12.43;;;7.53;;
27985;SDS011;15453;53.692;10.168;2022-10-26T04:54:29;10.80;;;7.40;;
27985;SDS011;15453;53.692;10.168;2022-10-26T04:56:55;11.27;;;6.82;;
27985;SDS011;15453;53.692;10.168;2022-10-26T04:59:20;11.30;;;7.28;;
27985;SDS011;15453;53.692;10.168;2022-10-26T05:01:45;9.73;;;6.82;;
27985;SDS011;15453;53.692;10.168;2022-10-26T05:04:10;11.73;;;8.23;;
27985;SDS011;15453;53.692;10.168;2022-10-26T05:06:36;10.75;;;7.80;;
27985;SDS011;15453;53.692;10.168;2022-10-26T05:09:01;10.18;;;7.93;;
27985;SDS011;15453;53.692;10.168;2022-10-26T05:11:26;9.75;;;7.55;;
27985;SDS011;15453;53.692;10.168;2022-10-26T05:13:51;12.68;;;8.75;;
27985;SDS011;15453;53.692;10.168;2022-10-26T05:16:17;10.30;;;8.23;;
27985;SDS011;15453;53.692;10.168;2022-10-26T05:18:42;11.68;;;8.38;;
27985;SDS011;15453;53.692;10.168;2022-10-26T05:21:07;12.38;;;8.70;;
27985;SDS011;15453;53.692;10.168;2022-10-26T05:23:32;11.52;;;7.82;;
27985;SDS011;15453;53.692;10.168;2022-10-26T05:25:58;13.48;;;8.73;;
27985;SDS011;15453;53.692;10.168;2022-10-26T05:28:23;11.45;;;7.68;;
27985;SDS011;15453;53.692;10.168;2022-10-26T05:30:48;12.77;;;8.40;;
27985;SDS011;15453;53.692;10.168;2022-10-26T05:33:13;12.00;;;8.23;;
27985;SDS011;15453;53.692;10.168;2022-10-26T05:35:39;10.90;;;8.07;;
27985;SDS011;15453;53.692;10.168;2022-10-26T05:38:08;11.80;;;7.88;;
27985;SDS011;15453;53.692;10.168;2022-10-26T05:40:34;16.02;;;8.60;;
27985;SDS011;15453;53.692;10.168;2022-10-26T05:43:00;14.40;;;8.70;;
27985;SDS011;15453;53.692;10.168;2022-10-26T05:45:26;10.93;;;7.95;;
27985;SDS011;15453;53.692;10.168;2022-10-26T05:47:51;13.40;;;8.07;;
27985;SDS011;15453;53.692;10.168;2022-10-26T05:50:16;12.80;;;8.75;;
27985;SDS011;15453;53.692;10.168;2022-10-26T05:52:43;29.88;;;17.05;;
27985;SDS011;15453;53.692;10.168;2022-10-26T05:55:10;32.63;;;20.67;;
27985;SDS011;15453;53.692;10.168;2022-10-26T05:57:38;35.05;;;20.48;;
27985;SDS011;15453;53.692;10.168;2022-10-26T06:00:25;25.95;;;15.85;;
27985;SDS011;15453;53.692;10.168;2022-10-26T06:05:34;14.07;;;9.70;;
27985;SDS011;15453;53.692;10.168;2022-10-26T06:08:15;13.55;;;8.60;;
27985;SDS011;15453;53.692;10.168;2022-10-26T06:10:41;9.48;;;7.18;;
27985;SDS011;15453;53.692;10.168;2022-10-26T06:13:06;9.98;;;7.70;;
27985;SDS011;15453;53.692;10.168;2022-10-26T06:15:33;11.23;;;7.95;;
27985;SDS011;15453;53.692;10.168;2022-10-26T06:18:10;9.82;;;6.90;;
27985;SDS011;15453;53.692;10.168;2022-10-26T06:20:48;10.27;;;7.28;;
27985;SDS011;15453;53.692;10.168;2022-10-26T06:32:21;9.82;;;6.63;;
27985;SDS011;15453;53.692;10.168;2022-10-26T06:34:47;13.88;;;8.30;;
27985;SDS011;15453;53.692;10.168;2022-10-26T06:37:14;12.18;;;8.20;;
27985;SDS011;15453;53.692;10.168;2022-10-26T06:39:42;12.82;;;7.43;;
27985;SDS011;15453;53.692;10.168;2022-10-26T06:42:10;12.63;;;8.00;;
27985;SDS011;15453;53.692;10.168;2022-10-26T06:44:36;14.20;;;7.93;;
27985;SDS011;15453;53.692;10.168;2022-10-26T06:47:21;14.95;;;8.70;;
27985;SDS011;15453;53.692;10.168;2022-10-26T06:52:34;12.13;;;8.90;;
27985;SDS011;15453;53.692;10.168;2022-10-26T06:55:04;11.10;;;7.50;;
27985;SDS011;15453;53.692;10.168;2022-10-26T06:57:33;13.20;;;7.95;;
27985;SDS011;15453;53.692;10.168;2022-10-26T07:00:02;10.00;;;7.45;;
27985;SDS011;15453;53.692;10.168;2022-10-26T07:02:30;10.27;;;8.00;;
27985;SDS011;15453;53.692;10.168;2022-10-26T07:04:55;10.00;;;7.70;;
27985;SDS011;15453;53.692;10.168;2022-10-26T07:07:21;10.93;;;7.60;;
27985;SDS011;15453;53.692;10.168;2022-10-26T07:09:49;11.65;;;8.25;;
27985;SDS011;15453;53.692;10.168;2022-10-26T07:12:14;9.75;;;7.00;;
27985;SDS011;15453;53.692;10.168;2022-10-26T07:14:39;12.18;;;7.78;;
27985;SDS011;15453;53.692;10.168;2022-10-26T07:17:05;10.20;;;7.30;;
27985;SDS011;15453;53.692;10.168;2022-10-26T07:19:30;12.15;;;7.10;;
27985;SDS011;15453;53.692;10.168;2022-10-26T07:21:56;11.20;;;7.80;;
27985;SDS011;15453;53.692;10.168;2022-10-26T07:24:25;10.70;;;7.88;;
27985;SDS011;15453;53.692;10.168;2022-10-26T07:26:54;11.20;;;7.72;;
27985;SDS011;15453;53.692;10.168;2022-10-26T07:29:20;13.82;;;6.72;;
27985;SDS011;15453;53.692;10.168;2022-10-26T07:31:46;12.85;;;7.00;;
27985;SDS011;15453;53.692;10.168;2022-10-26T07:34:11;10.30;;;7.30;;
27985;SDS011;15453;53.692;10.168;2022-10-26T07:36:37;11.68;;;7.93;;
27985;SDS011;15453;53.692;10.168;2022-10-26T07:39:03;10.75;;;7.55;;
27985;SDS011;15453;53.692;10.168;2022-10-26T07:41:28;9.45;;;7.43;;
27985;SDS011;15453;53.692;10.168;2022-10-26T07:43:54;8.00;;;6.55;;
27985;SDS011;15453;53.692;10.168;2022-10-26T07:46:19;8.50;;;6.63;;
27985;SDS011;15453;53.692;10.168;2022-10-26T07:48:44;10.13;;;6.80;;
27985;SDS011;15453;53.692;10.168;2022-10-26T07:51:10;8.70;;;6.82;;
27985;SDS011;15453;53.692;10.168;2022-10-26T07:53:35;9.50;;;7.15;;
27985;SDS011;15453;53.692;10.168;2022-10-26T07:56:00;8.98;;;6.85;;
27985;SDS011;15453;53.692;10.168;2022-10-26T07:58:25;14.43;;;7.05;;
27985;SDS011;15453;53.692;10.168;2022-10-26T08:00:52;9.05;;;6.28;;
27985;SDS011;15453;53.692;10.168;2022-10-26T08:03:17;8.93;;;6.65;;
27985;SDS011;15453;53.692;10.168;2022-10-26T08:05:49;10.88;;;6.82;;
27985;SDS011;15453;53.692;10.168;2022-10-26T08:08:17;9.23;;;6.30;;
27985;SDS011;15453;53.692;10.168;2022-10-26T08:10:43;12.60;;;6.95;;
27985;SDS011;15453;53.692;10.168;2022-10-26T08:13:09;10.13;;;6.93;;
27985;SDS011;15453;53.692;10.168;2022-10-26T08:15:34;15.48;;;6.90;;
27985;SDS011;15453;53.692;10.168;2022-10-26T08:18:00;9.93;;;6.65;;
27985;SDS011;15453;53.692;10.168;2022-10-26T08:20:25;10.90;;;6.82;;
27985;SDS011;15453;53.692;10.168;2022-10-26T08:22:50;12.30;;;6.68;;
27985;SDS011;15453;53.692;10.168;2022-10-26T08:25:16;8.75;;;6.03;;
27985;SDS011;15453;53.692;10.168;2022-10-26T08:27:42;11.63;;;6.55;;
27985;SDS011;15453;53.692;10.168;2022-10-26T08:30:07;8.10;;;6.60;;
27985;SDS011;15453;53.692;10.168;2022-10-26T08:32:33;9.93;;;6.13;;
27985;SDS011;15453;53.692;10.168;2022-10-26T08:34:58;8.30;;;5.82;;
27985;SDS011;15453;53.692;10.168;2022-10-26T08:37:23;11.25;;;5.65;;
27985;SDS011;15453;53.692;10.168;2022-10-26T08:39:49;7.50;;;5.40;;
27985;SDS011;15453;53.692;10.168;2022-10-26T08:42:31;8.63;;;5.57;;
27985;SDS011;15453;53.692;10.168;2022-10-26T08:45:04;25.90;;;14.68;;
27985;SDS011;15453;53.692;10.168;2022-10-26T08:47:44;18.52;;;9.75;;
27985;SDS011;15453;53.692;10.168;2022-10-26T08:50:32;9.40;;;6.60;;
27985;SDS011;15453;53.692;10.168;2022-10-26T08:53:02;9.73;;;5.45;;
27985;SDS011;15453;53.692;10.168;2022-10-26T08:55:33;11.75;;;6.10;;
27985;SDS011;15453;53.692;10.168;2022-10-26T08:58:04;9.00;;;5.90;;
27985;SDS011;15453;53.692;10.168;2022-10-26T09:00:34;8.60;;;5.70;;
27985;SDS011;15453;53.692;10.168;2022-10-26T09:03:00;8.93;;;5.10;;
27985;SDS011;15453;53.692;10.168;2022-10-26T09:05:27;10.20;;;5.63;;
27985;SDS011;15453;53.692;10.168;2022-10-26T09:08:14;7.85;;;5.28;;
27985;SDS011;15453;53.692;10.168;2022-10-26T09:10:57;8.88;;;5.18;;
27985;SDS011;15453;53.692;10.168;2022-10-26T09:18:56;11.38;;;5.60;;
27985;SDS011;15453;53.692;10.168;2022-10-26T09:24:53;6.72;;;4.43;;
27985;SDS011;15453;53.692;10.168;2022-10-26T09:27:22;8.68;;;4.60;;
27985;SDS011;15453;53.692;10.168;2022-10-26T09:29:52;9.73;;;4.88;;
27985;SDS011;15453;53.692;10.168;2022-10-26T09:32:20;9.25;;;4.85;;
27985;SDS011;15453;53.692;10.168;2022-10-26T09:34:49;7.60;;;5.10;;
27985;SDS011;15453;53.692;10.168;2022-10-26T09:37:18;12.10;;;4.67;;
27985;SDS011;15453;53.692;10.168;2022-10-26T09:39:51;7.35;;;3.88;;
27985;SDS011;15453;53.692;10.168;2022-10-26T09:42:20;6.85;;;4.63;;
27985;SDS011;15453;53.692;10.168;2022-10-26T09:44:54;7.65;;;4.20;;
27985;SDS011;15453;53.692;10.168;2022-10-26T09:47:37;6.75;;;3.60;;
27985;SDS011;15453;53.692;10.168;2022-10-26T09:50:23;8.43;;;4.82;;
27985;SDS011;15453;53.692;10.168;2022-10-26T09:52:52;9.13;;;4.22;;
27985;SDS011;15453;53.692;10.168;2022-10-26T09:55:18;6.47;;;3.80;;
27985;SDS011;15453;53.692;10.168;2022-10-26T09:57:45;10.05;;;3.72;;
27985;SDS011;15453;53.692;10.168;2022-10-26T10:00:15;11.90;;;3.80;;
27985;SDS011;15453;53.692;10.168;2022-10-26T10:02:42;7.43;;;3.40;;
27985;SDS011;15453;53.692;10.168;2022-10-26T10:08:08;7.53;;;3.30;;
27985;SDS011;15453;53.692;10.168;2022-10-26T10:10:35;5.70;;;3.05;;
27985;SDS011;15453;53.692;10.168;2022-10-26T10:13:13;7.68;;;3.42;;
27985;SDS011;15453;53.692;10.168;2022-10-26T10:15:40;5.37;;;3.03;;
27985;SDS011;15453;53.692;10.168;2022-10-26T10:18:20;8.45;;;2.60;;
27985;SDS011;15453;53.692;10.168;2022-10-26T10:20:54;4.72;;;2.60;;
27985;SDS011;15453;53.692;10.168;2022-10-26T10:23:28;3.55;;;2.15;;
27985;SDS011;15453;53.692;10.168;2022-10-26T10:26:01;6.32;;;3.00;;
27985;SDS011;15453;53.692;10.168;2022-10-26T10:28:29;4.18;;;2.10;;
27985;SDS011;15453;53.692;10.168;2022-10-26T10:30:55;4.10;;;2.08;;
27985;SDS011;15453;53.692;10.168;2022-10-26T10:33:37;8.13;;;2.33;;
27985;SDS011;15453;53.692;10.168;2022-10-26T10:36:12;5.60;;;2.20;;
27985;SDS011;15453;53.692;10.168;2022-10-26T10:38:43;3.67;;;2.05;;
27985;SDS011;15453;53.692;10.168;2022-10-26T10:41:18;5.47;;;2.35;;
27985;SDS011;15453;53.692;10.168;2022-10-26T10:43:50;4.95;;;1.85;;
27985;SDS011;15453;53.692;10.168;2022-10-26T10:46:19;4.18;;;1.63;;
27985;SDS011;15453;53.692;10.168;2022-10-26T10:48:47;4.65;;;2.00;;
27985;SDS011;15453;53.692;10.168;2022-10-26T10:51:17;3.70;;;1.63;;
27985;SDS011;15453;53.692;10.168;2022-10-26T10:53:47;4.55;;;1.92;;
27985;SDS011;15453;53.692;10.168;2022-10-26T11:07:03;5.13;;;1.88;;
27985;SDS011;15453;53.692;10.168;2022-10-26T11:09:30;3.47;;;1.52;;
27985;SDS011;15453;53.692;10.168;2022-10-26T11:12:02;5.00;;;1.70;;
27985;SDS011;15453;53.692;10.168;2022-10-26T11:14:41;4.65;;;1.90;;
27985;SDS011;15453;53.692;10.168;2022-10-26T11:22:34;3.35;;;1.60;;
27985;SDS011;15453;53.692;10.168;2022-10-26T11:25:10;5.72;;;2.03;;
27985;SDS011;15453;53.692;10.168;2022-10-26T11:30:18;6.47;;;1.80;;
27985;SDS011;15453;53.692;10.168;2022-10-26T11:35:32;6.47;;;2.08;;
27985;SDS011;15453;53.692;10.168;2022-10-26T11:38:11;5.57;;;1.80;;
27985;SDS011;15453;53.692;10.168;2022-10-26T11:40:48;6.10;;;1.88;;
27985;SDS011;15453;53.692;10.168;2022-10-26T11:43:22;4.57;;;1.60;;
27985;SDS011;15453;53.692;10.168;2022-10-26T11:46:04;4.00;;;1.50;;
27985;SDS011;15453;53.692;10.168;2022-10-26T11:48:38;6.28;;;1.98;;
27985;SDS011;15453;53.692;10.168;2022-10-26T11:51:15;4.97;;;2.28;;
27985;SDS011;15453;53.692;10.168;2022-10-26T11:53:46;4.25;;;1.73;;
27985;SDS011;15453;53.692;10.168;2022-10-26T11:56:21;7.63;;;2.17;;
27985;SDS011;15453;53.692;10.168;2022-10-26T11:58:53;7.00;;;1.80;;
27985;SDS011;15453;53.692;10.168;2022-10-26T12:01:20;4.00;;;1.52;;
27985;SDS011;15453;53.692;10.168;2022-10-26T12:03:47;2.80;;;1.40;;
27985;SDS011;15453;53.692;10.168;2022-10-26T12:06:15;5.35;;;1.80;;
27985;SDS011;15453;53.692;10.168;2022-10-26T12:08:50;3.28;;;1.50;;
27985;SDS011;15453;53.692;10.168;2022-10-26T12:19:30;3.75;;;1.67;;
27985;SDS011;15453;53.692;10.168;2022-10-26T12:22:01;4.65;;;2.03;;
27985;SDS011;15453;53.692;10.168;2022-10-26T12:24:28;5.07;;;2.42;;
27985;SDS011;15453;53.692;10.168;2022-10-26T12:26:58;4.40;;;2.35;;
27985;SDS011;15453;53.692;10.168;2022-10-26T12:29:28;6.10;;;2.47;;
27985;SDS011;15453;53.692;10.168;2022-10-26T12:31:54;5.25;;;2.00;;
27985;SDS011;15453;53.692;10.168;2022-10-26T12:41:56;5.75;;;2.22;;
27985;SDS011;15453;53.692;10.168;2022-10-26T12:44:35;4.53;;;1.70;;
27985;SDS011;15453;53.692;10.168;2022-10-26T12:47:03;4.13;;;1.70;;
27985;SDS011;15453;53.692;10.168;2022-10-26T12:52:40;6.35;;;3.05;;
27985;SDS011;15453;53.692;10.168;2022-10-26T13:00:12;4.35;;;1.90;;
27985;SDS011;15453;53.692;10.168;2022-10-26T13:05:36;7.10;;;3.00;;
27985;SDS011;15453;53.692;10.168;2022-10-26T13:08:13;6.47;;;2.30;;
27985;SDS011;15453;53.692;10.168;2022-10-26T13:10:43;3.90;;;1.80;;
27985;SDS011;15453;53.692;10.168;2022-10-26T13:13:25;4.28;;;1.88;;
27985;SDS011;15453;53.692;10.168;2022-10-26T13:15:54;4.80;;;1.80;;
27985;SDS011;15453;53.692;10.168;2022-10-26T13:18:21;5.68;;;2.28;;
27985;SDS011;15453;53.692;10.168;2022-10-26T13:23:39;5.15;;;1.92;;
27985;SDS011;15453;53.692;10.168;2022-10-26T13:31:01;3.77;;;1.90;;
27985;SDS011;15453;53.692;10.168;2022-10-26T13:33:28;6.03;;;2.22;;
27985;SDS011;15453;53.692;10.168;2022-10-26T13:36:00;5.70;;;2.00;;
27985;SDS011;15453;53.692;10.168;2022-10-26T13:38:28;5.32;;;1.80;;
27985;SDS011;15453;53.692;10.168;2022-10-26T13:41:02;4.93;;;2.28;;
27985;SDS011;15453;53.692;10.168;2022-10-26T13:43:31;5.13;;;2.10;;
27985;SDS011;15453;53.692;10.168;2022-10-26T13:46:00;9.70;;;2.13;;
27985;SDS011;15453;53.692;10.168;2022-10-26T13:48:29;6.93;;;2.50;;
27985;SDS011;15453;53.692;10.168;2022-10-26T13:51:01;5.97;;;1.85;;
27985;SDS011;15453;53.692;10.168;2022-10-26T13:57:16;5.68;;;2.10;;
27985;SDS011;15453;53.692;10.168;2022-10-26T13:59:30;3.88;;;1.98;;
27985;SDS011;15453;53.692;10.168;2022-10-26T14:02:15;5.90;;;1.90;;
27985;SDS011;15453;53.692;10.168;2022-10-26T14:04:47;5.53;;;2.25;;
27985;SDS011;15453;53.692;10.168;2022-10-26T14:07:18;4.38;;;2.08;;
27985;SDS011;15453;53.692;10.168;2022-10-26T14:09:50;3.88;;;1.70;;
27985;SDS011;15453;53.692;10.168;2022-10-26T14:12:17;6.35;;;2.05;;
27985;SDS011;15453;53.692;10.168;2022-10-26T14:14:42;4.32;;;1.90;;
27985;SDS011;15453;53.692;10.168;2022-10-26T14:17:13;3.10;;;1.80;;
27985;SDS011;15453;53.692;10.168;2022-10-26T14:19:43;4.47;;;2.03;;
27985;SDS011;15453;53.692;10.168;2022-10-26T14:22:13;3.33;;;1.63;;
27985;SDS011;15453;53.692;10.168;2022-10-26T14:24:48;3.25;;;1.70;;
27985;SDS011;15453;53.692;10.168;2022-10-26T14:27:20;4.97;;;1.88;;
27985;SDS011;15453;53.692;10.168;2022-10-26T14:29:47;7.70;;;1.92;;
27985;SDS011;15453;53.692;10.168;2022-10-26T14:32:20;3.67;;;1.73;;
27985;SDS011;15453;53.692;10.168;2022-10-26T14:34:47;4.32;;;1.88;;
27985;SDS011;15453;53.692;10.168;2022-10-26T14:37:17;5.55;;;2.25;;
27985;SDS011;15453;53.692;10.168;2022-10-26T14:39:49;5.57;;;1.95;;
27985;SDS011;15453;53.692;10.168;2022-10-26T14:42:18;8.05;;;2.10;;
27985;SDS011;15453;53.692;10.168;2022-10-26T14:44:50;5.25;;;2.03;;
27985;SDS011;15453;53.692;10.168;2022-10-26T14:47:19;4.88;;;2.22;;
27985;SDS011;15453;53.692;10.168;2022-10-26T14:49:48;9.57;;;1.92;;
27985;SDS011;15453;53.692;10.168;2022-10-26T14:52:15;5.28;;;1.80;;
27985;SDS011;15453;53.692;10.168;2022-10-26T14:54:59;5.15;;;1.60;;
27985;SDS011;15453;53.692;10.168;2022-10-26T14:57:39;6.72;;;1.52;;
27985;SDS011;15453;53.692;10.168;2022-10-26T15:02:45;3.47;;;1.90;;
27985;SDS011;15453;53.692;10.168;2022-10-26T15:05:16;4.70;;;1.90;;
27985;SDS011;15453;53.692;10.168;2022-10-26T15:07:44;3.92;;;1.98;;
27985;SDS011;15453;53.692;10.168;2022-10-26T15:13:07;3.25;;;1.58;;
27985;SDS011;15453;53.692;10.168;2022-10-26T15:15:33;5.57;;;1.90;;
27985;SDS011;15453;53.692;10.168;2022-10-26T15:17:58;5.28;;;1.80;;
27985;SDS011;15453;53.692;10.168;2022-10-26T15:20:25;5.65;;;1.60;;
27985;SDS011;15453;53.692;10.168;2022-10-26T15:22:53;4.18;;;1.90;;
27985;SDS011;15453;53.692;10.168;2022-10-26T15:25:21;4.83;;;1.80;;
27985;SDS011;15453;53.692;10.168;2022-10-26T15:27:49;5.10;;;2.10;;
27985;SDS011;15453;53.692;10.168;2022-10-26T15:30:25;6.78;;;2.50;;
27985;SDS011;15453;53.692;10.168;2022-10-26T15:32:52;9.23;;;2.40;;
27985;SDS011;15453;53.692;10.168;2022-10-26T15:37:55;7.43;;;1.80;;
27985;SDS011;15453;53.692;10.168;2022-10-26T15:40:22;7.60;;;2.10;;
27985;SDS011;15453;53.692;10.168;2022-10-26T15:42:50;7.35;;;2.60;;
27985;SDS011;15453;53.692;10.168;2022-10-26T15:47:44;7.68;;;3.33;;
27985;SDS011;15453;53.692;10.168;2022-10-26T15:50:11;5.90;;;2.80;;
27985;SDS011;15453;53.692;10.168;2022-10-26T15:52:37;7.55;;;2.40;;
27985;SDS011;15453;53.692;10.168;2022-10-26T15:55:03;5.28;;;2.20;;
27985;SDS011;15453;53.692;10.168;2022-10-26T15:57:28;4.03;;;1.98;;
27985;SDS011;15453;53.692;10.168;2022-10-26T15:59:54;4.45;;;1.77;;
27985;SDS011;15453;53.692;10.168;2022-10-26T16:02:19;3.33;;;1.67;;
27985;SDS011;15453;53.692;10.168;2022-10-26T16:04:44;3.72;;;1.80;;
27985;SDS011;15453;53.692;10.168;2022-10-26T16:07:13;5.80;;;2.15;;
27985;SDS011;15453;53.692;10.168;2022-10-26T16:09:40;3.47;;;1.60;;
27985;SDS011;15453;53.692;10.168;2022-10-26T16:12:09;7.20;;;1.90;;
27985;SDS011;15453;53.692;10.168;2022-10-26T16:14:35;4.72;;;2.00;;
27985;SDS011;15453;53.692;10.168;2022-10-26T16:17:01;4.22;;;2.13;;
27985;SDS011;15453;53.692;10.168;2022-10-26T16:19:26;5.78;;;1.90;;
27985;SDS011;15453;53.692;10.168;2022-10-26T16:21:51;4.68;;;1.50;;
27985;SDS011;15453;53.692;10.168;2022-10-26T16:24:17;4.88;;;2.20;;
27985;SDS011;15453;53.692;10.168;2022-10-26T16:26:42;5.68;;;1.55;;
27985;SDS011;15453;53.692;10.168;2022-10-26T16:29:07;3.90;;;1.95;;
27985;SDS011;15453;53.692;10.168;2022-10-26T16:31:32;5.70;;;2.25;;
27985;SDS011;15453;53.692;10.168;2022-10-26T16:33:58;7.50;;;2.60;;
27985;SDS011;15453;53.692;10.168;2022-10-26T16:36:23;4.40;;;2.10;;
27985;SDS011;15453;53.692;10.168;2022-10-26T16:38:48;4.63;;;2.10;;
27985;SDS011;15453;53.692;10.168;2022-10-26T16:41:14;4.18;;;2.40;;
27985;SDS011;15453;53.692;10.168;2022-10-26T16:43:43;6.72;;;2.40;;